sensor_id;sensor_type;location;lat;lon;timestamp;P1;durP1;ratioP1;P2;durP2;ratioP2
82777;SDS011;72510;45.128;20.734;2024-02-04T00:05:00;36.92;;;19.83;;
82777;SDS011;72510;45.128;20.734;2024-02-04T00:15:05;29.92;;;16.38;;
82777;SDS011;72510;45.128;20.734;2024-02-04T00:25:08;33.70;;;18.75;;
82777;SDS011;72510;45.128;20.734;2024-02-04T00:35:12;27.30;;;17.13;;
82777;SDS011;72510;45.128;20.734;2024-02-04T00:45:13;36.83;;;20.75;;
82777;SDS011;72510;45.128;20.734;2024-02-04T00:55:15;31.88;;;17.00;;
82777;SDS011;72510;45.128;20.734;2024-02-04T01:05:16;28.73;;;17.17;;
82777;SDS011;72510;45.128;20.734;2024-02-04T01:15:22;32.30;;;17.73;;
82777;SDS011;72510;45.128;20.734;2024-02-04T01:25:23;28.05;;;15.02;;
82777;SDS011;72510;45.128;20.734;2024-02-04T01:35:25;37.67;;;21.23;;
82777;SDS011;72510;45.128;20.734;2024-02-04T01:45:27;31.15;;;17.42;;
82777;SDS011;72510;45.128;20.734;2024-02-04T01:55:28;32.58;;;16.33;;
82777;SDS011;72510;45.128;20.734;2024-02-04T02:05:29;26.42;;;17.08;;
82777;SDS011;72510;45.128;20.734;2024-02-04T02:15:32;29.70;;;13.05;;
82777;SDS011;72510;45.128;20.734;2024-02-04T02:25:38;32.08;;;17.38;;
82777;SDS011;72510;45.128;20.734;2024-02-04T02:35:42;17.77;;;9.35;;
82777;SDS011;72510;45.128;20.734;2024-02-04T02:45:45;18.20;;;11.60;;
82777;SDS011;72510;45.128;20.734;2024-02-04T02:55:47;22.10;;;12.82;;
82777;SDS011;72510;45.128;20.734;2024-02-04T03:05:49;15.15;;;8.65;;
82777;SDS011;72510;45.128;20.734;2024-02-04T03:15:51;15.80;;;8.60;;
82777;SDS011;72510;45.128;20.734;2024-02-04T03:25:53;103.82;;;42.72;;
82777;SDS011;72510;45.128;20.734;2024-02-04T03:35:58;30.08;;;16.88;;
82777;SDS011;72510;45.128;20.734;2024-02-04T03:46:00;19.40;;;10.93;;
82777;SDS011;72510;45.128;20.734;2024-02-04T03:56:01;22.25;;;14.70;;
82777;SDS011;72510;45.128;20.734;2024-02-04T04:06:02;17.58;;;9.52;;
82777;SDS011;72510;45.128;20.734;2024-02-04T04:16:04;28.08;;;15.65;;
82777;SDS011;72510;45.128;20.734;2024-02-04T04:26:05;13.95;;;9.32;;
82777;SDS011;72510;45.128;20.734;2024-02-04T04:36:07;20.55;;;11.50;;
82777;SDS011;72510;45.128;20.734;2024-02-04T04:46:09;8.40;;;4.93;;
82777;SDS011;72510;45.128;20.734;2024-02-04T04:56:12;9.27;;;5.97;;
82777;SDS011;72510;45.128;20.734;2024-02-04T05:06:13;10.95;;;7.40;;
82777;SDS011;72510;45.128;20.734;2024-02-04T05:16:17;19.63;;;12.93;;
82777;SDS011;72510;45.128;20.734;2024-02-04T05:26:22;16.25;;;9.80;;
82777;SDS011;72510;45.128;20.734;2024-02-04T05:36:24;11.13;;;6.35;;
82777;SDS011;72510;45.128;20.734;2024-02-04T05:46:26;15.10;;;7.90;;
82777;SDS011;72510;45.128;20.734;2024-02-04T05:56:28;25.00;;;13.02;;
82777;SDS011;72510;45.128;20.734;2024-02-04T06:06:29;29.73;;;15.45;;
82777;SDS011;72510;45.128;20.734;2024-02-04T06:16:31;33.30;;;16.30;;
82777;SDS011;72510;45.128;20.734;2024-02-04T06:26:38;33.85;;;17.05;;
82777;SDS011;72510;45.128;20.734;2024-02-04T06:36:43;44.30;;;19.15;;
82777;SDS011;72510;45.128;20.734;2024-02-04T06:46:45;49.30;;;22.98;;
82777;SDS011;72510;45.128;20.734;2024-02-04T06:56:47;44.97;;;21.08;;
82777;SDS011;72510;45.128;20.734;2024-02-04T07:06:48;59.03;;;26.92;;
82777;SDS011;72510;45.128;20.734;2024-02-04T07:16:50;127.45;;;58.88;;
82777;SDS011;72510;45.128;20.734;2024-02-04T07:26:52;90.55;;;47.63;;
82777;SDS011;72510;45.128;20.734;2024-02-04T07:36:56;122.25;;;64.00;;
82777;SDS011;72510;45.128;20.734;2024-02-04T07:46:57;161.68;;;88.85;;
82777;SDS011;72510;45.128;20.734;2024-02-04T07:56:59;110.57;;;49.47;;
82777;SDS011;72510;45.128;20.734;2024-02-04T08:07:01;78.45;;;40.78;;
82777;SDS011;72510;45.128;20.734;2024-02-04T08:17:03;66.03;;;35.38;;
82777;SDS011;72510;45.128;20.734;2024-02-04T08:27:04;93.55;;;44.60;;
82777;SDS011;72510;45.128;20.734;2024-02-04T08:37:09;50.08;;;27.15;;
82777;SDS011;72510;45.128;20.734;2024-02-04T08:47:13;84.30;;;43.15;;
82777;SDS011;72510;45.128;20.734;2024-02-04T08:57:17;209.90;;;116.72;;
82777;SDS011;72510;45.128;20.734;2024-02-04T09:07:20;50.67;;;24.58;;
82777;SDS011;72510;45.128;20.734;2024-02-04T09:17:34;27.73;;;15.68;;
82777;SDS011;72510;45.128;20.734;2024-02-04T09:27:37;38.05;;;20.60;;
82777;SDS011;72510;45.128;20.734;2024-02-04T09:37:50;11.73;;;6.78;;
82777;SDS011;72510;45.128;20.734;2024-02-04T09:47:52;7.97;;;4.35;;
82777;SDS011;72510;45.128;20.734;2024-02-04T09:58:01;12.95;;;6.47;;
82777;SDS011;72510;45.128;20.734;2024-02-04T10:08:03;6.72;;;3.78;;
82777;SDS011;72510;45.128;20.734;2024-02-04T10:18:05;2.00;;;1.67;;
82777;SDS011;72510;45.128;20.734;2024-02-04T10:28:08;2.30;;;1.70;;
82777;SDS011;72510;45.128;20.734;2024-02-04T10:38:09;1.55;;;1.45;;
82777;SDS011;72510;45.128;20.734;2024-02-04T10:48:12;2.95;;;1.55;;
82777;SDS011;72510;45.128;20.734;2024-02-04T10:58:22;4.00;;;2.42;;
82777;SDS011;72510;45.128;20.734;2024-02-04T11:08:25;3.90;;;2.50;;
82777;SDS011;72510;45.128;20.734;2024-02-04T11:29:09;2.35;;;1.35;;
82777;SDS011;72510;45.128;20.734;2024-02-04T11:49:29;2.10;;;1.30;;
82777;SDS011;72510;45.128;20.734;2024-02-04T11:59:33;1.67;;;1.13;;
82777;SDS011;72510;45.128;20.734;2024-02-04T12:09:43;1.67;;;1.40;;
82777;SDS011;72510;45.128;20.734;2024-02-04T12:19:46;2.80;;;1.60;;
82777;SDS011;72510;45.128;20.734;2024-02-04T12:40:32;2.58;;;1.77;;
82777;SDS011;72510;45.128;20.734;2024-02-04T13:01:32;1.55;;;1.13;;
82777;SDS011;72510;45.128;20.734;2024-02-04T13:33:10;1.48;;;0.95;;
82777;SDS011;72510;45.128;20.734;2024-02-04T13:43:16;1.38;;;0.60;;
82777;SDS011;72510;45.128;20.734;2024-02-04T13:53:23;0.82;;;0.47;;
82777;SDS011;72510;45.128;20.734;2024-02-04T14:03:34;1.52;;;1.23;;
82777;SDS011;72510;45.128;20.734;2024-02-04T14:13:40;1.15;;;0.75;;
82777;SDS011;72510;45.128;20.734;2024-02-04T14:33:59;4.28;;;3.85;;
82777;SDS011;72510;45.128;20.734;2024-02-04T14:44:12;8.00;;;4.32;;
82777;SDS011;72510;45.128;20.734;2024-02-04T14:54:21;4.57;;;2.55;;
82777;SDS011;72510;45.128;20.734;2024-02-04T15:04:34;10.65;;;5.57;;
82777;SDS011;72510;45.128;20.734;2024-02-04T15:25:20;8.48;;;4.35;;
82777;SDS011;72510;45.128;20.734;2024-02-04T16:07:21;9.23;;;4.60;;
82777;SDS011;72510;45.128;20.734;2024-02-04T16:17:29;10.00;;;5.05;;
82777;SDS011;72510;45.128;20.734;2024-02-04T16:27:38;25.02;;;11.05;;
82777;SDS011;72510;45.128;20.734;2024-02-04T16:37:40;40.00;;;17.83;;
82777;SDS011;72510;45.128;20.734;2024-02-04T16:58:03;102.13;;;47.33;;
82777;SDS011;72510;45.128;20.734;2024-02-04T17:08:05;45.05;;;21.20;;
82777;SDS011;72510;45.128;20.734;2024-02-04T17:18:08;23.42;;;12.32;;
82777;SDS011;72510;45.128;20.734;2024-02-04T17:28:11;50.70;;;23.08;;
82777;SDS011;72510;45.128;20.734;2024-02-04T17:38:14;50.28;;;22.63;;
82777;SDS011;72510;45.128;20.734;2024-02-04T17:48:19;74.82;;;32.45;;
82777;SDS011;72510;45.128;20.734;2024-02-04T17:58:23;122.55;;;45.97;;
82777;SDS011;72510;45.128;20.734;2024-02-04T18:08:35;91.85;;;39.58;;
82777;SDS011;72510;45.128;20.734;2024-02-04T18:18:39;67.32;;;39.58;;
82777;SDS011;72510;45.128;20.734;2024-02-04T18:28:46;124.43;;;62.75;;
82777;SDS011;72510;45.128;20.734;2024-02-04T18:38:56;59.53;;;31.33;;
82777;SDS011;72510;45.128;20.734;2024-02-04T18:49:10;50.15;;;25.30;;
82777;SDS011;72510;45.128;20.734;2024-02-04T18:59:11;58.03;;;31.27;;
82777;SDS011;72510;45.128;20.734;2024-02-04T19:09:16;59.40;;;30.42;;
82777;SDS011;72510;45.128;20.734;2024-02-04T19:19:20;63.33;;;30.55;;
82777;SDS011;72510;45.128;20.734;2024-02-04T19:39:55;58.95;;;31.25;;
82777;SDS011;72510;45.128;20.734;2024-02-04T19:50:04;75.68;;;38.00;;
82777;SDS011;72510;45.128;20.734;2024-02-04T20:10:16;119.15;;;57.55;;
82777;SDS011;72510;45.128;20.734;2024-02-04T20:30:44;61.22;;;31.98;;
82777;SDS011;72510;45.128;20.734;2024-02-04T20:40:55;48.20;;;26.23;;
82777;SDS011;72510;45.128;20.734;2024-02-04T20:51:04;57.55;;;29.35;;
82777;SDS011;72510;45.128;20.734;2024-02-04T21:11:23;59.53;;;26.52;;
82777;SDS011;72510;45.128;20.734;2024-02-04T21:21:40;51.25;;;28.77;;
82777;SDS011;72510;45.128;20.734;2024-02-04T21:31:48;57.80;;;28.98;;
82777;SDS011;72510;45.128;20.734;2024-02-04T21:41:53;63.70;;;36.45;;
82777;SDS011;72510;45.128;20.734;2024-02-04T21:51:57;66.63;;;36.33;;
82777;SDS011;72510;45.128;20.734;2024-02-04T22:12:08;28.98;;;19.60;;
82777;SDS011;72510;45.128;20.734;2024-02-04T22:22:22;62.15;;;31.20;;
82777;SDS011;72510;45.128;20.734;2024-02-04T22:32:38;47.38;;;28.13;;
82777;SDS011;72510;45.128;20.734;2024-02-04T22:42:39;27.60;;;18.00;;
82777;SDS011;72510;45.128;20.734;2024-02-04T22:52:41;25.80;;;15.77;;
82777;SDS011;72510;45.128;20.734;2024-02-04T23:13:06;22.42;;;13.43;;
82777;SDS011;72510;45.128;20.734;2024-02-04T23:23:07;20.55;;;12.05;;
82777;SDS011;72510;45.128;20.734;2024-02-04T23:33:09;19.42;;;12.10;;
82777;SDS011;72510;45.128;20.734;2024-02-04T23:43:20;20.55;;;12.98;;
82777;SDS011;72510;45.128;20.734;2024-02-04T23:53:25;28.83;;;17.23;;
